Time;durP1;ratioP1;P1;durP2;ratioP2;P2;SDS_P1;SDS_P2;PMS_P1;PMS_P2;Temp;Humidity;BMP_temperature;BMP_pressure;BME280_temperature;BME280_humidity;BME280_pressure;Samples;Min_cycle;Max_cycle;Signal;HPM_P1;HPM_P2
2024/02/20 00:00:19;;;;;;;24.13;4.83;;;6.70;99.90;;;;;;5025043;28;20112;-88
2024/02/20 00:02:45;;;;;;;24.50;4.60;;;6.70;99.90;;;;;;5026430;28;20322;-87
2024/02/20 00:05:12;;;;;;;28.17;5.20;;;6.70;99.90;;;;;;5042698;28;20559;-88
2024/02/20 00:07:38;;;;;;;28.20;4.90;;;6.60;99.90;;;;;;5026790;28;20029;-88
2024/02/20 00:10:07;;;;;;;22.33;4.27;;;6.60;99.90;;;;;;5043330;28;20466;-86
2024/02/20 00:12:33;;;;;;;28.70;4.90;;;6.60;99.90;;;;;;5042726;28;20539;-87
2024/02/20 00:15:01;;;;;;;33.60;5.27;;;6.60;99.90;;;;;;5026105;28;20065;-87
2024/02/20 00:17:28;;;;;;;29.37;5.53;;;6.60;99.90;;;;;;5042627;28;20037;-86
2024/02/20 00:19:53;;;;;;;33.70;5.53;;;6.60;99.90;;;;;;5026508;28;20052;-85
2024/02/20 00:22:19;;;;;;;31.63;4.77;;;6.60;99.90;;;;;;5024996;28;20025;-85
2024/02/20 00:24:45;;;;;;;28.00;5.10;;;6.60;99.90;;;;;;5025749;28;20026;-88
2024/02/20 00:27:10;;;;;;;33.93;6.27;;;6.60;99.90;;;;;;5025207;28;20040;-86
2024/02/20 00:29:36;;;;;;;25.20;5.73;;;6.60;99.90;;;;;;5025350;28;20021;-86
2024/02/20 00:32:04;;;;;;;26.20;5.57;;;6.60;99.90;;;;;;5025370;28;20025;-85
2024/02/20 00:34:30;;;;;;;25.33;6.10;;;6.60;99.90;;;;;;5024651;28;20045;-86
2024/02/20 00:36:55;;;;;;;19.73;4.93;;;6.60;99.90;;;;;;5043745;28;20109;-86
2024/02/20 00:39:21;;;;;;;22.63;4.87;;;6.60;99.90;;;;;;5024523;28;20043;-86
2024/02/20 00:41:47;;;;;;;27.50;5.20;;;6.60;99.90;;;;;;5025944;28;20037;-86
2024/02/20 00:44:13;;;;;;;29.23;5.77;;;6.60;99.90;;;;;;5042542;28;20028;-86
2024/02/20 00:46:38;;;;;;;25.10;5.40;;;6.60;99.90;;;;;;5024021;28;20063;-87
2024/02/20 00:49:04;;;;;;;23.17;4.87;;;6.60;99.90;;;;;;5025329;28;20029;-85
2024/02/20 00:51:30;;;;;;;23.77;4.80;;;6.50;99.90;;;;;;5024139;28;20025;-89
2024/02/20 00:53:55;;;;;;;29.43;6.23;;;6.50;99.90;;;;;;5025366;28;20029;-88
2024/02/20 00:56:21;;;;;;;23.30;4.53;;;6.50;99.90;;;;;;5024046;28;20033;-86
2024/02/20 00:58:50;;;;;;;24.47;4.60;;;6.50;99.90;;;;;;5026125;28;20025;-85
2024/02/20 01:01:16;;;;;;;24.63;5.73;;;6.40;99.90;;;;;;5042255;28;20113;-85
2024/02/20 01:03:42;;;;;;;25.60;4.37;;;6.40;99.90;;;;;;5024908;28;20021;-86
2024/02/20 01:06:09;;;;;;;24.93;5.13;;;6.40;99.90;;;;;;5025018;28;20056;-85
2024/02/20 01:08:36;;;;;;;28.67;6.03;;;6.40;99.90;;;;;;5023811;28;20036;-88
2024/02/20 01:11:05;;;;;;;19.27;4.77;;;6.40;99.90;;;;;;5024763;28;20041;-87
2024/02/20 01:13:31;;;;;;;27.43;6.27;;;6.30;99.90;;;;;;5024027;28;20045;-87
2024/02/20 01:15:57;;;;;;;24.63;4.23;;;6.40;99.90;;;;;;5043599;28;20088;-87
2024/02/20 01:18:23;;;;;;;26.60;4.50;;;6.30;99.90;;;;;;5024277;28;20089;-87
2024/02/20 01:20:48;;;;;;;24.97;4.97;;;6.30;99.90;;;;;;5025243;28;20032;-87
2024/02/20 01:23:14;;;;;;;24.50;4.50;;;6.30;99.90;;;;;;5024814;28;20501;-86
2024/02/20 01:25:43;;;;;;;24.87;5.33;;;6.30;99.90;;;;;;5023564;28;20095;-86
2024/02/20 01:28:09;;;;;;;20.17;5.10;;;6.30;99.90;;;;;;5043045;28;20052;-86
2024/02/20 01:30:36;;;;;;;28.30;5.97;;;6.30;99.90;;;;;;5023474;28;20013;-86
2024/02/20 01:33:02;;;;;;;27.63;6.77;;;6.30;99.90;;;;;;5043038;28;20087;-86
2024/02/20 01:35:28;;;;;;;26.83;5.37;;;6.30;99.90;;;;;;5041660;28;20029;-86
2024/02/20 01:37:54;;;;;;;21.07;5.40;;;6.30;99.90;;;;;;5042319;28;20075;-87
2024/02/20 01:40:21;;;;;;;27.50;6.27;;;6.30;99.90;;;;;;5042054;28;20025;-86
2024/02/20 01:42:55;;;;;;;30.20;6.03;;;6.30;99.90;;;;;;5041340;28;20018;-87
2024/02/20 01:45:23;;;;;;;26.37;6.20;;;6.30;99.90;;;;;;5024504;28;20021;-90
2024/02/20 01:47:48;;;;;;;25.37;7.07;;;6.30;99.90;;;;;;5023239;28;20112;-86
2024/02/20 01:50:14;;;;;;;23.23;6.13;;;6.30;99.90;;;;;;5024661;28;20022;-85
2024/02/20 01:52:40;;;;;;;29.77;5.73;;;6.20;99.90;;;;;;5023746;28;20021;-86
2024/02/20 01:55:06;;;;;;;28.93;6.00;;;6.30;99.90;;;;;;5041392;28;20018;-87
2024/02/20 01:57:33;;;;;;;19.90;5.40;;;6.20;99.90;;;;;;5041573;28;20026;-87
2024/02/20 01:59:59;;;;;;;22.07;5.07;;;6.20;99.90;;;;;;5023227;28;20041;-85
2024/02/20 02:02:24;;;;;;;24.90;5.63;;;6.30;99.90;;;;;;5041896;28;20032;-85
2024/02/20 02:04:51;;;;;;;30.60;5.53;;;6.30;99.90;;;;;;5040628;28;20025;-86
2024/02/20 02:07:16;;;;;;;25.50;4.63;;;6.30;99.90;;;;;;5024379;28;20041;-86
2024/02/20 02:09:42;;;;;;;25.10;5.27;;;6.30;99.90;;;;;;5023188;28;20049;-86
2024/02/20 02:12:08;;;;;;;29.33;5.90;;;6.30;99.90;;;;;;5024129;28;20109;-86
2024/02/20 02:14:33;;;;;;;28.77;5.10;;;6.30;99.90;;;;;;5023477;28;20022;-86
2024/02/20 02:16:59;;;;;;;23.90;4.90;;;6.30;99.90;;;;;;5023149;28;20029;-86
2024/02/20 02:19:25;;;;;;;24.10;6.17;;;6.30;99.90;;;;;;5024093;28;20071;-86
2024/02/20 02:21:51;;;;;;;28.97;6.60;;;6.30;99.90;;;;;;5022848;28;20021;-85
2024/02/20 02:24:17;;;;;;;19.80;5.27;;;6.30;99.90;;;;;;5024144;28;20113;-85
2024/02/20 02:26:43;;;;;;;20.37;6.70;;;6.30;99.90;;;;;;5040156;28;20417;-85
2024/02/20 02:29:08;;;;;;;26.00;6.93;;;6.30;99.90;;;;;;5041919;28;20101;-86
2024/02/20 02:31:34;;;;;;;30.80;7.70;;;6.30;99.90;;;;;;5040422;28;20052;-85
2024/02/20 02:34:00;;;;;;;22.73;5.77;;;6.30;99.90;;;;;;5022462;28;20018;-85
2024/02/20 02:36:25;;;;;;;27.43;6.70;;;6.30;99.90;;;;;;5041672;28;20028;-84
2024/02/20 02:38:52;;;;;;;26.77;6.17;;;6.30;99.90;;;;;;5022170;28;20031;-86
2024/02/20 02:41:18;;;;;;;20.37;4.87;;;6.30;99.90;;;;;;5041619;28;20024;-85
2024/02/20 02:43:44;;;;;;;20.33;4.83;;;6.30;99.90;;;;;;5022732;28;20104;-87
2024/02/20 02:46:12;;;;;;;24.17;5.10;;;6.30;99.90;;;;;;5023813;28;20029;-86
2024/02/20 02:48:37;;;;;;;23.30;4.80;;;6.20;99.90;;;;;;5022771;28;20041;-86
2024/02/20 02:51:03;;;;;;;19.93;4.63;;;6.30;99.90;;;;;;5022993;28;20017;-87
2024/02/20 02:53:28;;;;;;;23.00;4.73;;;6.30;99.90;;;;;;5023549;28;20053;-87
2024/02/20 02:55:54;;;;;;;27.43;5.10;;;6.30;99.90;;;;;;5022248;28;20351;-87
2024/02/20 02:58:20;;;;;;;22.83;4.13;;;6.30;99.90;;;;;;5023693;28;20024;-87
2024/02/20 03:00:46;;;;;;;23.73;4.47;;;6.30;99.90;;;;;;5022277;28;20073;-87
2024/02/20 03:03:11;;;;;;;24.20;5.40;;;6.30;99.90;;;;;;5041361;28;20401;-86
2024/02/20 03:05:37;;;;;;;26.53;5.47;;;6.30;99.90;;;;;;5022940;28;20180;-86
2024/02/20 03:08:04;;;;;;;29.10;5.33;;;6.30;99.90;;;;;;5022679;28;20029;-86
2024/02/20 03:10:30;;;;;;;26.87;4.90;;;6.30;99.90;;;;;;5044787;28;20022;-86
2024/02/20 03:12:56;;;;;;;20.53;5.83;;;6.40;99.90;;;;;;5026268;28;20024;-86
2024/02/20 03:15:22;;;;;;;22.00;4.53;;;6.40;99.90;;;;;;5045096;28;20045;-86
2024/02/20 03:17:49;;;;;;;18.93;4.57;;;6.30;99.90;;;;;;5026031;28;20013;-85
2024/02/20 03:20:15;;;;;;;20.33;3.90;;;6.30;99.90;;;;;;5045320;28;20017;-88
2024/02/20 03:22:42;;;;;;;20.73;5.30;;;6.40;99.90;;;;;;5026579;28;20125;-86
2024/02/20 03:25:08;;;;;;;22.23;4.40;;;6.40;99.90;;;;;;5027078;28;20097;-86
2024/02/20 03:27:35;;;;;;;25.83;5.43;;;6.40;99.90;;;;;;5027123;28;20033;-86
2024/02/20 03:30:00;;;;;;;28.70;6.60;;;6.40;99.90;;;;;;5026020;28;20014;-86
2024/02/20 03:32:26;;;;;;;19.37;4.83;;;6.40;99.90;;;;;;5044369;28;20024;-86
2024/02/20 03:34:52;;;;;;;26.43;6.07;;;6.40;99.90;;;;;;5026011;28;20116;-86
2024/02/20 03:37:18;;;;;;;24.90;5.00;;;6.40;99.90;;;;;;5027694;28;20056;-87
2024/02/20 03:39:44;;;;;;;29.90;5.43;;;6.40;99.90;;;;;;5026539;28;20029;-87
2024/02/20 03:42:09;;;;;;;24.00;5.30;;;6.40;99.90;;;;;;5027582;28;20496;-87
2024/02/20 03:44:39;;;;;;;27.00;4.87;;;6.40;99.90;;;;;;5028044;28;20010;-86
2024/02/20 03:47:05;;;;;;;31.00;4.87;;;6.40;99.90;;;;;;5030782;28;20026;-87
2024/02/20 03:49:31;;;;;;;23.90;4.83;;;6.40;99.90;;;;;;5027711;28;20029;-87
2024/02/20 03:51:56;;;;;;;22.40;4.47;;;6.40;99.90;;;;;;5026208;28;20026;-87
2024/02/20 03:54:22;;;;;;;25.47;5.03;;;6.40;99.90;;;;;;5028164;28;20108;-87
2024/02/20 03:56:48;;;;;;;20.80;4.30;;;6.40;99.90;;;;;;5026276;28;20021;-87
2024/02/20 03:59:13;;;;;;;22.77;4.67;;;6.40;99.90;;;;;;5044341;28;20038;-87
2024/02/20 04:01:39;;;;;;;22.37;4.63;;;6.40;99.90;;;;;;5044226;28;20049;-87
2024/02/20 04:04:05;;;;;;;24.97;4.73;;;6.40;99.90;;;;;;5025814;28;20022;-86
2024/02/20 04:06:32;;;;;;;28.37;3.83;;;6.40;99.90;;;;;;5043840;28;20092;-86
2024/02/20 04:09:03;;;;;;;22.83;3.97;;;6.40;99.90;;;;;;5025742;28;20021;-87
2024/02/20 04:11:30;;;;;;;21.37;3.70;;;6.50;99.90;;;;;;5027032;28;20077;-87
2024/02/20 04:13:55;;;;;;;20.23;5.03;;;6.40;99.90;;;;;;5025658;28;20017;-87
2024/02/20 04:16:21;;;;;;;20.33;4.27;;;6.40;99.90;;;;;;5026176;28;20082;-85
2024/02/20 04:18:46;;;;;;;19.93;3.53;;;6.50;99.90;;;;;;5025964;28;20075;-86
2024/02/20 04:21:12;;;;;;;29.87;5.10;;;6.40;99.90;;;;;;5024849;28;20018;-86
2024/02/20 04:23:38;;;;;;;18.50;4.47;;;6.50;99.90;;;;;;5044111;28;20045;-86
2024/02/20 04:26:03;;;;;;;24.40;4.83;;;6.50;99.90;;;;;;5042798;28;20033;-86
2024/02/20 04:28:34;;;;;;;24.07;4.70;;;6.50;99.90;;;;;;5026082;28;20093;-86
2024/02/20 04:31:03;;;;;;;30.83;4.63;;;6.50;99.90;;;;;;5042000;28;20025;-86
2024/02/20 04:33:32;;;;;;;21.13;4.17;;;6.50;99.90;;;;;;5025488;28;20117;-86
2024/02/20 04:35:57;;;;;;;26.53;3.47;;;6.50;99.90;;;;;;5025700;28;20028;-85
2024/02/20 04:38:23;;;;;;;20.30;4.73;;;6.50;99.90;;;;;;5024806;28;20109;-86
2024/02/20 04:40:49;;;;;;;20.83;3.97;;;6.50;99.90;;;;;;5043508;28;20108;-85
2024/02/20 04:43:15;;;;;;;19.73;3.30;;;6.50;99.90;;;;;;5042459;28;20044;-85
2024/02/20 04:45:41;;;;;;;21.90;4.07;;;6.50;99.90;;;;;;5025772;28;20105;-85
2024/02/20 04:48:07;;;;;;;23.80;3.50;;;6.50;99.90;;;;;;5042133;28;20449;-86
2024/02/20 04:50:33;;;;;;;27.10;4.17;;;6.50;99.90;;;;;;5025934;28;20014;-86
2024/02/20 04:52:59;;;;;;;19.70;4.03;;;6.50;99.90;;;;;;5043099;28;20014;-86
2024/02/20 04:55:28;;;;;;;22.87;3.60;;;6.50;99.90;;;;;;5042452;28;20096;-86
2024/02/20 04:57:54;;;;;;;20.90;4.20;;;6.50;99.90;;;;;;5024991;28;20066;-86
2024/02/20 05:00:20;;;;;;;17.67;3.93;;;6.50;99.90;;;;;;5022350;28;20064;-85
2024/02/20 05:02:46;;;;;;;16.83;3.80;;;6.50;99.90;;;;;;5025277;28;20049;-87
2024/02/20 05:05:12;;;;;;;25.03;3.97;;;6.50;99.90;;;;;;5042349;28;20019;-86
2024/02/20 05:07:38;;;;;;;23.00;4.73;;;6.50;99.90;;;;;;5025246;28;20481;-86
2024/02/20 05:10:07;;;;;;;15.73;4.40;;;6.60;99.90;;;;;;5042414;28;20029;-88
2024/02/20 05:12:33;;;;;;;28.63;4.50;;;6.60;99.90;;;;;;5024524;28;20021;-87
2024/02/20 05:14:58;;;;;;;23.53;4.77;;;6.60;99.90;;;;;;5025274;28;20056;-88
2024/02/20 05:17:24;;;;;;;23.40;4.77;;;6.60;99.90;;;;;;5041855;28;20032;-86
2024/02/20 05:19:50;;;;;;;25.33;5.10;;;6.60;99.90;;;;;;5025252;28;20036;-88
2024/02/20 05:22:16;;;;;;;22.30;4.93;;;6.60;99.90;;;;;;5042022;28;20017;-87
2024/02/20 05:24:43;;;;;;;23.07;4.33;;;6.70;99.90;;;;;;5042631;28;20018;-87
2024/02/20 05:27:09;;;;;;;20.83;4.80;;;6.70;99.90;;;;;;5024313;28;20390;-86
2024/02/20 05:29:35;;;;;;;20.37;5.10;;;6.70;99.90;;;;;;5024343;28;20032;-87
2024/02/20 05:32:01;;;;;;;26.70;4.73;;;6.70;99.90;;;;;;5041439;28;20030;-86
2024/02/20 05:34:27;;;;;;;24.37;4.83;;;6.70;99.90;;;;;;5032804;28;20089;-87
2024/02/20 05:36:52;;;;;;;22.73;5.43;;;6.70;99.90;;;;;;5042347;28;20033;-86
2024/02/20 05:39:18;;;;;;;30.13;5.37;;;6.70;99.90;;;;;;5039545;28;20021;-88
2024/02/20 05:41:44;;;;;;;20.00;4.93;;;6.70;99.90;;;;;;5042238;28;20170;-88
2024/02/20 05:44:10;;;;;;;31.53;6.50;;;6.70;99.90;;;;;;5024338;28;20029;-88
2024/02/20 05:46:37;;;;;;;30.00;7.27;;;6.70;99.90;;;;;;5038483;28;20064;-88
2024/02/20 05:49:05;;;;;;;27.73;5.90;;;6.70;99.90;;;;;;5061411;28;20488;-88
2024/02/20 05:51:32;;;;;;;25.20;5.97;;;6.80;99.90;;;;;;5042855;28;20112;-88
2024/02/20 05:53:58;;;;;;;26.67;5.43;;;6.70;99.90;;;;;;5062387;28;20027;-86
2024/02/20 05:56:24;;;;;;;21.80;5.63;;;6.80;99.90;;;;;;5042933;28;20043;-86
2024/02/20 05:58:50;;;;;;;15.00;5.50;;;6.70;99.90;;;;;;5027894;28;20025;-86
2024/02/20 06:01:15;;;;;;;22.83;5.03;;;6.80;99.90;;;;;;5039466;28;20045;-89
2024/02/20 06:03:43;;;;;;;29.77;6.20;;;6.80;99.90;;;;;;5040392;28;20056;-88
2024/02/20 06:06:09;;;;;;;20.30;5.67;;;6.80;99.90;;;;;;5040115;28;20037;-87
2024/02/20 06:08:42;;;;;;;22.30;6.03;;;6.80;99.90;;;;;;5038719;28;20056;-85
2024/02/20 06:11:18;;;;;;;26.13;5.43;;;6.80;99.90;;;;;;5041555;28;20048;-85
2024/02/20 06:13:45;;;;;;;22.40;4.37;;;6.80;99.90;;;;;;5040162;28;20061;-85
2024/02/20 06:16:11;;;;;;;19.67;5.40;;;6.90;99.90;;;;;;5039905;28;20438;-85
2024/02/20 06:18:37;;;;;;;24.93;5.27;;;6.90;99.90;;;;;;5039269;28;20031;-86
2024/02/20 06:21:04;;;;;;;22.80;5.63;;;6.90;99.90;;;;;;5038543;28;20025;-86
2024/02/20 06:23:29;;;;;;;26.40;6.00;;;6.90;99.90;;;;;;5038848;28;20036;-85
2024/02/20 06:25:55;;;;;;;23.37;5.20;;;6.90;99.90;;;;;;5037895;28;20060;-86
2024/02/20 06:28:21;;;;;;;29.10;5.90;;;6.90;99.90;;;;;;5038715;28;20022;-86
2024/02/20 06:30:50;;;;;;;24.50;5.83;;;7.00;99.90;;;;;;5037129;28;20024;-86
2024/02/20 06:33:16;;;;;;;18.67;5.33;;;7.00;99.90;;;;;;5039240;28;20034;-86
2024/02/20 06:35:42;;;;;;;20.67;5.53;;;6.90;99.90;;;;;;5038158;28;20028;-86
2024/02/20 06:38:09;;;;;;;22.33;5.37;;;6.90;99.90;;;;;;5039757;28;20021;-86
2024/02/20 06:40:34;;;;;;;24.67;6.47;;;6.90;99.90;;;;;;5040548;28;20017;-86
2024/02/20 06:43:00;;;;;;;18.57;6.40;;;6.90;99.90;;;;;;5038986;28;20036;-86
2024/02/20 06:45:27;;;;;;;26.17;6.20;;;6.90;99.90;;;;;;5039779;28;20052;-85
2024/02/20 06:47:53;;;;;;;22.73;6.77;;;6.90;99.90;;;;;;5038302;28;20041;-84
2024/02/20 06:50:19;;;;;;;24.03;6.10;;;6.90;99.90;;;;;;5040922;28;20029;-84
2024/02/20 06:52:45;;;;;;;24.33;6.30;;;6.90;99.90;;;;;;5039037;28;20028;-85
2024/02/20 06:55:11;;;;;;;20.17;7.00;;;6.90;99.90;;;;;;5038978;28;20034;-86
2024/02/20 06:57:39;;;;;;;25.43;6.67;;;6.90;99.90;;;;;;5039191;28;20064;-85
2024/02/20 07:00:07;;;;;;;26.77;6.77;;;6.90;99.90;;;;;;5037911;28;20057;-84
2024/02/20 07:02:33;;;;;;;18.53;6.07;;;6.90;99.90;;;;;;5039240;28;20038;-85
2024/02/20 07:04:58;;;;;;;20.00;6.07;;;6.90;99.90;;;;;;5038033;28;20077;-85
2024/02/20 07:07:24;;;;;;;21.90;6.73;;;6.90;99.90;;;;;;5039680;28;20055;-84
2024/02/20 07:09:49;;;;;;;16.83;5.20;;;6.90;99.90;;;;;;5040075;28;20053;-84
2024/02/20 07:12:15;;;;;;;27.13;6.90;;;6.90;99.90;;;;;;5038463;28;20065;-84
2024/02/20 07:14:41;;;;;;;21.73;6.03;;;6.90;99.90;;;;;;5038987;28;20048;-84
2024/02/20 07:17:06;;;;;;;23.23;6.27;;;6.90;99.90;;;;;;5037768;28;20036;-84
2024/02/20 07:19:32;;;;;;;18.00;6.50;;;6.90;99.90;;;;;;5040257;28;20032;-84
2024/02/20 07:21:58;;;;;;;24.80;7.77;;;6.90;99.90;;;;;;5038731;28;20025;-84
2024/02/20 07:24:24;;;;;;;27.57;6.33;;;6.90;99.90;;;;;;5039279;28;20025;-84
2024/02/20 07:26:50;;;;;;;19.67;5.53;;;6.90;99.90;;;;;;5037875;28;20041;-83
2024/02/20 07:29:19;;;;;;;24.77;6.57;;;7.00;99.90;;;;;;5040011;28;20052;-84
2024/02/20 07:31:47;;;;;;;19.10;5.43;;;7.00;99.90;;;;;;5039355;28;20489;-84
2024/02/20 07:34:13;;;;;;;22.83;6.40;;;7.10;99.90;;;;;;5037818;28;20028;-84
2024/02/20 07:36:39;;;;;;;19.67;5.37;;;7.10;99.90;;;;;;5039141;28;20018;-84
2024/02/20 07:39:05;;;;;;;20.20;6.20;;;7.10;99.90;;;;;;5039554;28;20022;-84
2024/02/20 07:41:31;;;;;;;31.73;6.87;;;7.10;99.90;;;;;;5039791;28;20025;-84
2024/02/20 07:43:56;;;;;;;20.83;6.20;;;7.20;99.90;;;;;;5038132;28;20029;-84
2024/02/20 07:46:22;;;;;;;25.97;7.17;;;7.20;99.90;;;;;;5040416;28;20037;-84
2024/02/20 07:48:48;;;;;;;22.47;5.53;;;7.30;99.90;;;;;;5040118;28;20328;-84
2024/02/20 07:51:15;;;;;;;18.77;6.20;;;7.30;99.90;;;;;;5037804;28;20085;-85
2024/02/20 07:53:42;;;;;;;25.77;6.13;;;7.40;99.90;;;;;;5040284;28;20013;-84
2024/02/20 07:56:09;;;;;;;20.70;8.20;;;7.40;99.90;;;;;;5041324;28;20025;-84
2024/02/20 07:58:38;;;;;;;29.43;8.13;;;7.50;99.90;;;;;;5042823;28;20093;-84
2024/02/20 08:01:08;;;;;;;30.50;7.23;;;7.50;99.90;;;;;;5041370;28;20524;-84
2024/02/20 08:03:34;;;;;;;21.07;6.07;;;7.50;99.90;;;;;;5043682;28;20017;-84
2024/02/20 08:06:00;;;;;;;22.13;5.70;;;7.50;99.90;;;;;;5043268;28;20044;-84
2024/02/20 08:08:26;;;;;;;25.53;7.17;;;7.60;99.90;;;;;;5042951;28;20020;-84
2024/02/20 08:10:51;;;;;;;25.33;7.57;;;7.60;99.90;;;;;;5042729;28;20014;-84
2024/02/20 08:13:17;;;;;;;22.47;5.80;;;7.60;99.90;;;;;;5041023;28;20029;-85
2024/02/20 08:15:43;;;;;;;24.50;6.43;;;7.70;99.90;;;;;;5042431;28;20028;-85
2024/02/20 08:18:08;;;;;;;23.20;6.43;;;7.70;99.90;;;;;;5041458;28;20030;-84
2024/02/20 08:20:34;;;;;;;24.63;6.27;;;7.70;99.90;;;;;;5042678;28;20116;-85
2024/02/20 08:23:00;;;;;;;21.07;5.93;;;7.80;99.90;;;;;;5041799;28;20025;-85
2024/02/20 08:25:26;;;;;;;26.33;5.93;;;7.80;99.90;;;;;;5042555;28;20022;-85
2024/02/20 08:27:51;;;;;;;27.30;6.80;;;7.80;99.90;;;;;;5041903;28;20033;-86
2024/02/20 08:30:22;;;;;;;22.33;5.87;;;7.90;99.90;;;;;;5041050;28;20014;-85
2024/02/20 08:32:47;;;;;;;22.07;5.47;;;7.90;99.90;;;;;;5043104;28;20132;-85
2024/02/20 08:35:13;;;;;;;24.30;6.03;;;7.90;99.90;;;;;;5042233;28;20033;-85
2024/02/20 08:37:38;;;;;;;23.47;5.93;;;8.00;99.90;;;;;;5043632;28;20024;-86
2024/02/20 08:40:04;;;;;;;20.90;5.57;;;8.00;99.90;;;;;;5041495;28;20013;-84
2024/02/20 08:42:30;;;;;;;20.80;5.17;;;8.10;99.90;;;;;;5040944;28;20028;-85
2024/02/20 08:44:56;;;;;;;26.00;5.83;;;8.10;99.90;;;;;;5045185;28;20048;-85
2024/02/20 08:47:22;;;;;;;24.57;5.20;;;8.20;99.90;;;;;;5045024;28;20097;-84
2024/02/20 08:49:50;;;;;;;23.87;6.43;;;8.20;99.90;;;;;;5045238;28;20013;-84
2024/02/20 08:52:17;;;;;;;17.27;5.37;;;8.30;99.90;;;;;;5045273;28;20032;-85
2024/02/20 08:54:43;;;;;;;21.60;5.37;;;8.30;99.90;;;;;;5046371;28;20152;-85
2024/02/20 08:57:08;;;;;;;25.97;6.40;;;8.40;99.90;;;;;;5043434;28;20026;-84
2024/02/20 08:59:34;;;;;;;28.67;6.57;;;8.40;99.90;;;;;;5041545;28;20018;-84
2024/02/20 09:02:00;;;;;;;25.63;6.90;;;8.50;99.90;;;;;;5054628;28;20045;-84
2024/02/20 09:04:28;;;;;;;24.00;6.33;;;8.50;99.90;;;;;;5043877;28;20021;-85
2024/02/20 09:06:54;;;;;;;23.40;6.47;;;8.60;99.90;;;;;;5061743;28;20338;-85
2024/02/20 09:09:22;;;;;;;20.50;5.53;;;8.60;99.90;;;;;;5043229;28;20064;-85
2024/02/20 09:11:49;;;;;;;21.10;5.40;;;8.80;99.90;;;;;;5044507;28;20032;-84
2024/02/20 09:14:15;;;;;;;22.20;6.23;;;8.90;99.90;;;;;;5043944;28;20496;-85
2024/02/20 09:16:41;;;;;;;26.37;5.57;;;9.00;99.90;;;;;;5043723;28;20021;-85
2024/02/20 09:19:06;;;;;;;22.90;5.37;;;9.00;99.90;;;;;;5044731;28;20070;-84
2024/02/20 09:21:32;;;;;;;25.70;7.27;;;9.10;99.90;;;;;;5043475;28;20071;-85
2024/02/20 09:23:58;;;;;;;30.90;6.40;;;9.10;99.90;;;;;;5062417;28;20025;-84
2024/02/20 09:26:23;;;;;;;22.63;5.87;;;9.20;99.90;;;;;;5042672;28;20033;-85
2024/02/20 09:28:49;;;;;;;26.57;5.73;;;9.20;99.90;;;;;;5044571;28;20021;-84
2024/02/20 09:31:17;;;;;;;25.10;6.63;;;9.20;99.90;;;;;;5061217;28;20052;-85
2024/02/20 09:33:42;;;;;;;24.83;6.30;;;9.20;99.90;;;;;;5043678;28;20403;-85
2024/02/20 09:36:09;;;;;;;21.93;6.50;;;9.20;99.90;;;;;;5044043;28;20029;-85
2024/02/20 09:38:35;;;;;;;23.90;4.77;;;9.20;99.90;;;;;;5042763;28;20025;-85
2024/02/20 09:41:03;;;;;;;27.33;6.07;;;9.20;99.90;;;;;;5044094;28;20021;-83
2024/02/20 09:43:31;;;;;;;27.97;6.10;;;9.30;99.90;;;;;;5042629;28;20029;-85
2024/02/20 09:46:00;;;;;;;23.25;5.63;;;9.20;99.90;;;;;;5044210;28;20061;-84
2024/02/20 09:48:27;;;;;;;17.83;4.93;;;9.30;99.90;;;;;;5042880;28;20391;-83
2024/02/20 09:50:56;;;;;;;18.47;5.10;;;9.40;99.90;;;;;;5043435;28;20090;-84
2024/02/20 09:53:22;;;;;;;26.35;5.32;;;9.40;99.90;;;;;;5043452;28;20025;-84
2024/02/20 09:55:51;;;;;;;22.67;5.00;;;9.50;99.90;;;;;;5042337;28;20033;-84
2024/02/20 09:58:17;;;;;;;32.37;6.93;;;9.50;99.90;;;;;;5043882;28;20027;-84
2024/02/20 10:00:43;;;;;;;20.95;6.15;;;9.70;99.90;;;;;;5041997;28;20080;-84
2024/02/20 10:03:09;;;;;;;25.45;5.65;;;9.90;99.90;;;;;;5043972;28;20051;-84
2024/02/20 10:05:48;;;;;;;21.23;5.93;;;10.00;99.90;;;;;;5061310;28;20036;-84
2024/02/20 10:08:14;;;;;;;20.05;4.63;;;10.20;99.90;;;;;;5042648;28;20045;-84
2024/02/20 10:10:42;;;;;;;19.00;5.32;;;10.30;99.90;;;;;;5043428;28;20032;-84
2024/02/20 10:13:08;;;;;;;22.48;5.35;;;10.30;99.90;;;;;;5042240;28;20025;-84
2024/02/20 10:15:33;;;;;;;21.40;6.15;;;10.40;99.90;;;;;;5061533;28;20035;-84
2024/02/20 10:18:04;;;;;;;25.13;6.38;;;10.40;99.90;;;;;;5042071;28;20036;-84
2024/02/20 10:20:30;;;;;;;22.05;5.53;;;10.40;99.90;;;;;;5061540;28;20046;-84
2024/02/20 10:23:10;;;;;;;27.67;6.55;;;10.40;99.90;;;;;;5060671;28;20025;-84
2024/02/20 10:25:37;;;;;;;31.70;6.78;;;10.40;99.90;;;;;;5042102;28;20036;-84
2024/02/20 10:28:05;;;;;;;23.05;6.00;;;10.30;99.90;;;;;;5061063;28;20037;-84
2024/02/20 10:30:35;;;;;;;22.33;6.38;;;10.40;99.90;;;;;;5041720;28;20036;-84
2024/02/20 10:33:00;;;;;;;24.42;6.22;;;10.40;99.90;;;;;;5043361;28;20047;-84
2024/02/20 10:35:26;;;;;;;17.05;5.20;;;10.40;99.90;;;;;;5042323;28;20025;-84
2024/02/20 10:38:02;;;;;;;21.13;6.13;;;10.50;99.90;;;;;;5060339;28;20029;-85
2024/02/20 10:40:29;;;;;;;22.67;6.07;;;10.60;99.90;;;;;;5060985;28;20024;-84
2024/02/20 10:42:56;;;;;;;27.23;6.63;;;10.60;99.90;;;;;;5041780;28;20052;-85
2024/02/20 10:45:23;;;;;;;25.80;7.35;;;10.70;99.90;;;;;;5042891;28;20059;-84
2024/02/20 10:47:52;;;;;;;27.90;6.60;;;10.70;99.90;;;;;;5041419;28;20050;-85
2024/02/20 10:50:18;;;;;;;26.15;6.20;;;10.70;99.90;;;;;;5043084;28;20439;-85
2024/02/20 10:52:45;;;;;;;26.70;5.80;;;10.80;99.90;;;;;;5060153;28;20031;-83
2024/02/20 10:55:11;;;;;;;18.60;5.03;;;10.80;99.90;;;;;;5060271;28;20080;-84
2024/02/20 10:57:38;;;;;;;24.52;5.70;;;10.90;99.90;;;;;;5060781;28;20096;-84
2024/02/20 11:00:08;;;;;;;18.60;5.93;;;10.90;99.90;;;;;;5041290;28;20036;-84
2024/02/20 11:02:38;;;;;;;22.13;5.85;;;10.90;99.90;;;;;;5060687;28;20496;-83
2024/02/20 11:05:05;;;;;;;25.23;7.40;;;11.00;99.90;;;;;;5059247;28;20029;-84
2024/02/20 11:07:31;;;;;;;25.08;7.70;;;10.90;99.90;;;;;;5060633;28;20029;-85
2024/02/20 11:10:06;;;;;;;26.05;5.93;;;11.00;99.90;;;;;;5059992;28;20028;-85
2024/02/20 11:12:32;;;;;;;29.10;8.02;;;11.00;99.90;;;;;;5059804;28;20036;-85
2024/02/20 11:15:09;;;;;;;23.73;7.13;;;11.00;99.90;;;;;;5042826;28;20017;-85
2024/02/20 11:17:39;;;;;;;21.80;6.18;;;11.00;99.90;;;;;;5040888;28;20032;-85
2024/02/20 11:20:08;;;;;;;24.10;7.25;;;10.90;99.90;;;;;;5042657;28;20028;-85
2024/02/20 11:22:34;;;;;;;19.65;6.10;;;10.90;99.90;;;;;;5041924;28;20106;-85
2024/02/20 11:25:05;;;;;;;26.77;7.07;;;11.00;99.90;;;;;;5060245;28;20497;-85
2024/02/20 11:27:37;;;;;;;26.23;7.30;;;11.00;99.90;;;;;;5060262;28;20096;-84
2024/02/20 11:30:20;;;;;;;22.15;5.97;;;11.10;99.90;;;;;;5061045;28;20024;-85
2024/02/20 11:32:47;;;;;;;23.20;5.80;;;11.10;99.90;;;;;;5045995;28;20096;-85
2024/02/20 11:35:33;;;;;;;22.38;6.22;;;11.10;99.90;;;;;;5045075;28;20035;-84
2024/02/20 11:38:00;;;;;;;27.45;6.05;;;11.30;99.90;;;;;;5045843;28;20473;-85
2024/02/20 11:40:33;;;;;;;22.08;6.50;;;11.30;99.90;;;;;;5046984;28;20385;-85
2024/02/20 11:43:04;;;;;;;27.42;6.32;;;11.40;99.90;;;;;;5063958;28;20029;-85
2024/02/20 11:45:31;;;;;;;28.23;7.07;;;11.50;99.90;;;;;;5064607;28;20427;-85
2024/02/20 11:48:08;;;;;;;22.38;5.80;;;11.70;99.90;;;;;;5063744;28;20039;-85
2024/02/20 11:50:39;;;;;;;20.27;5.93;;;11.80;99.90;;;;;;5064276;28;20025;-85
2024/02/20 11:53:11;;;;;;;16.67;6.35;;;11.90;99.90;;;;;;5045873;28;20056;-84
2024/02/20 11:55:41;;;;;;;22.42;6.82;;;12.10;99.90;;;;;;5045030;28;20055;-84
2024/02/20 11:58:07;;;;;;;27.92;6.45;;;12.30;99.90;;;;;;5045786;28;20025;-85
2024/02/20 12:00:38;;;;;;;18.65;5.75;;;12.40;99.90;;;;;;5044665;28;20032;-85
2024/02/20 12:03:05;;;;;;;20.13;6.38;;;12.60;99.90;;;;;;5045811;28;20048;-85
2024/02/20 12:05:42;;;;;;;17.10;5.60;;;12.70;99.90;;;;;;5045367;28;20101;-85
2024/02/20 12:08:16;;;;;;;19.10;5.97;;;12.80;99.90;;;;;;5044832;28;20128;-85
2024/02/20 12:10:46;;;;;;;19.08;5.50;;;12.80;99.90;;;;;;5045901;28;20032;-85
2024/02/20 12:13:16;;;;;;;15.98;5.68;;;12.80;99.90;;;;;;5044417;28;20074;-85
2024/02/20 12:15:48;;;;;;;16.15;4.82;;;12.90;99.90;;;;;;5045741;28;20017;-85
2024/02/20 12:18:28;;;;;;;22.23;6.20;;;12.90;99.90;;;;;;5062561;28;20083;-86
2024/02/20 12:21:07;;;;;;;18.83;5.75;;;12.90;99.90;;;;;;5063448;28;20045;-86
2024/02/20 12:23:33;;;;;;;20.30;5.57;;;13.00;99.60;;;;;;5044877;28;20393;-86
2024/02/20 12:26:10;;;;;;;16.20;5.25;;;13.00;99.90;;;;;;5061981;28;20028;-86
2024/02/20 12:28:37;;;;;;;20.05;5.63;;;13.00;99.90;;;;;;5063937;28;20076;-86
2024/02/20 12:31:08;;;;;;;19.45;5.78;;;13.10;99.00;;;;;;5062089;28;20059;-84
2024/02/20 12:33:34;;;;;;;20.92;6.35;;;13.10;98.20;;;;;;5044713;28;20042;-85
2024/02/20 12:36:01;;;;;;;18.40;6.55;;;13.10;97.60;;;;;;5044913;28;20040;-86
2024/02/20 12:38:28;;;;;;;18.75;4.47;;;13.20;98.00;;;;;;5044237;28;20023;-86
2024/02/20 12:40:55;;;;;;;28.98;7.43;;;13.30;97.70;;;;;;5063220;28;20029;-85
2024/02/20 12:43:21;;;;;;;19.60;5.00;;;13.40;96.20;;;;;;5061832;28;20029;-86